Time;durP1;ratioP1;P1;durP2;ratioP2;P2;SDS_P1;SDS_P2;PMS_P1;PMS_P2;Temp;Humidity;BMP_temperature;BMP_pressure;BME280_temperature;BME280_humidity;BME280_pressure;Samples;Min_cycle;Max_cycle;Signal;HPM_P1;HPM_P2
2021/12/12 00:01:44;;;;;;;14.40;8.43;;;6.70;87.10;;;;;;5062248;28;20128;-80
2021/12/12 00:04:14;;;;;;;11.60;6.55;;;6.70;86.80;;;;;;5055568;28;20029;-80
2021/12/12 00:06:47;;;;;;;12.98;7.30;;;6.70;86.90;;;;;;5061400;28;20033;-80
2021/12/12 00:09:28;;;;;;;15.75;9.15;;;6.70;86.90;;;;;;5068879;28;20565;-80
2021/12/12 00:11:55;;;;;;;14.07;7.45;;;6.60;86.60;;;;;;5060285;28;20032;-80
2021/12/12 00:14:25;;;;;;;13.63;7.50;;;6.70;86.80;;;;;;5068260;28;20044;-80
2021/12/12 00:16:53;;;;;;;14.80;7.82;;;6.60;86.70;;;;;;5067591;28;20032;-80
2021/12/12 00:19:21;;;;;;;15.38;8.82;;;6.60;86.60;;;;;;5067972;28;20102;-80
2021/12/12 00:21:53;;;;;;;19.40;10.38;;;6.60;86.60;;;;;;5066137;28;20031;-80
2021/12/12 00:24:19;;;;;;;13.57;7.40;;;6.50;86.50;;;;;;5070414;28;20040;-81
2021/12/12 00:26:48;;;;;;;15.48;8.27;;;6.50;86.70;;;;;;5062695;28;20541;-81
2021/12/12 00:29:15;;;;;;;14.98;7.57;;;6.50;86.70;;;;;;5068063;28;20483;-80
2021/12/12 00:31:41;;;;;;;14.43;8.00;;;6.40;86.60;;;;;;5068001;28;20127;-80
2021/12/12 00:34:07;;;;;;;17.17;8.38;;;6.40;86.70;;;;;;5066805;28;20518;-80
2021/12/12 00:36:34;;;;;;;11.30;6.50;;;6.40;86.80;;;;;;5066415;28;20032;-80
2021/12/12 00:39:22;;;;;;;10.98;6.00;;;6.50;86.80;;;;;;5069205;28;20066;-80
2021/12/12 00:42:05;;;;;;;14.15;6.70;;;6.50;86.80;;;;;;5068128;28;20036;-80
2021/12/12 00:44:31;;;;;;;11.15;6.30;;;6.60;86.80;;;;;;5063652;28;20429;-80
2021/12/12 00:47:01;;;;;;;19.75;9.63;;;6.60;86.80;;;;;;5059260;28;20023;-80
2021/12/12 00:49:28;;;;;;;12.93;7.35;;;6.50;86.50;;;;;;5069969;28;20036;-82
2021/12/12 00:51:55;;;;;;;11.93;7.10;;;6.40;86.70;;;;;;5061398;28;20112;-80
2021/12/12 00:54:20;;;;;;;12.93;6.53;;;6.40;86.70;;;;;;5064323;28;20072;-80
2021/12/12 00:56:47;;;;;;;12.50;6.78;;;6.50;86.80;;;;;;5069360;28;20436;-80
2021/12/12 00:59:13;;;;;;;14.00;6.60;;;6.60;86.80;;;;;;5068316;28;20487;-81
2021/12/12 01:01:46;;;;;;;14.93;7.63;;;6.50;86.60;;;;;;5065231;28;20537;-81
2021/12/12 01:04:15;;;;;;;;;;;6.40;86.40;;;;;;5071178;28;20025;-81
2021/12/12 01:06:41;;;;;;;14.43;6.78;;;6.50;86.60;;;;;;5065543;28;19922;-81
2021/12/12 01:09:14;;;;;;;18.50;8.52;;;6.50;86.70;;;;;;5071092;28;20037;-81
2021/12/12 01:11:41;;;;;;;;;;;6.50;86.60;;;;;;5066423;28;20024;-80
2021/12/12 01:14:12;;;;;;;13.60;6.78;;;6.50;86.50;;;;;;5065381;28;19912;-80
2021/12/12 01:16:49;;;;;;;10.30;5.00;;;6.40;86.60;;;;;;5068594;28;20033;-79
2021/12/12 01:19:26;;;;;;;11.05;5.90;;;6.40;86.70;;;;;;5065724;28;20607;-79
2021/12/12 01:21:57;;;;;;;13.32;6.78;;;6.40;86.70;;;;;;5069218;28;20021;-78
2021/12/12 01:24:29;;;;;;;13.15;6.43;;;6.40;86.70;;;;;;5064903;28;20029;-79
2021/12/12 01:26:57;;;;;;;13.63;6.00;;;6.40;86.80;;;;;;5063974;28;20024;-80
2021/12/12 01:29:23;;;;;;;13.88;5.00;;;6.40;86.80;;;;;;5063404;28;20399;-79
2021/12/12 01:31:49;;;;;;;13.63;6.72;;;6.50;86.90;;;;;;5062885;28;20029;-78
2021/12/12 01:34:19;;;;;;;17.15;7.07;;;6.40;86.70;;;;;;5064137;28;20028;-79
2021/12/12 01:39:41;;;;;;;15.45;6.18;;;6.50;86.80;;;;;;5061350;28;20028;-79
2021/12/12 01:42:33;;;;;;;17.13;6.47;;;6.50;86.70;;;;;;5066583;28;20025;-80
2021/12/12 01:45:05;;;;;;;12.68;6.00;;;6.50;86.80;;;;;;5057110;28;20131;-80
2021/12/12 01:47:41;;;;;;;9.15;5.00;;;6.50;86.80;;;;;;5066240;28;20125;-80
2021/12/12 01:50:21;;;;;;;14.50;6.30;;;6.60;86.90;;;;;;5059328;28;20070;-80
2021/12/12 01:52:48;;;;;;;22.13;7.63;;;6.50;86.80;;;;;;5066636;28;20025;-80
2021/12/12 01:55:49;;;;;;;9.40;5.05;;;6.60;86.80;;;;;;5069136;28;20077;-79
2021/12/12 01:58:18;;;;;;;17.05;7.68;;;6.60;86.90;;;;;;5061624;28;20086;-79
2021/12/12 02:00:50;;;;;;;12.80;6.07;;;6.50;86.70;;;;;;5059722;28;20032;-79
2021/12/12 02:03:20;;;;;;;11.02;5.13;;;6.50;86.80;;;;;;5066973;28;20047;-78
2021/12/12 02:05:46;;;;;;;12.80;4.80;;;6.50;86.90;;;;;;5067081;28;20506;-78
2021/12/12 02:08:14;;;;;;;14.77;6.00;;;6.50;87.00;;;;;;5061170;28;20058;-78
2021/12/12 02:10:45;;;;;;;16.33;6.22;;;6.50;87.00;;;;;;5061760;28;20066;-78
2021/12/12 02:13:14;;;;;;;15.32;6.95;;;6.50;87.00;;;;;;5066295;28;20093;-78
2021/12/12 02:15:42;;;;;;;15.50;5.80;;;6.40;87.10;;;;;;5067511;28;20043;-78
2021/12/12 02:18:13;;;;;;;13.02;4.78;;;6.40;87.90;;;;;;5069266;28;20033;-78
2021/12/12 02:21:05;;;;;;;15.35;5.78;;;6.40;87.40;;;;;;5067878;28;20021;-79
2021/12/12 02:37:24;;;;;;;12.10;5.22;;;6.40;87.80;;;;;;5070004;28;20199;-79
2021/12/12 02:39:50;;;;;;;12.27;5.63;;;6.40;87.90;;;;;;5069079;28;20017;-80
2021/12/12 02:42:21;;;;;;;15.82;5.75;;;6.40;88.00;;;;;;5065544;28;21756;-79
2021/12/12 02:44:49;;;;;;;11.85;4.80;;;6.40;88.00;;;;;;5068795;28;20493;-79
2021/12/12 02:47:19;;;;;;;8.32;3.60;;;6.50;88.00;;;;;;5065238;28;20460;-78
2021/12/12 02:50:07;;;;;;;13.35;5.28;;;6.60;88.00;;;;;;5061749;28;20124;-80
2021/12/12 02:52:32;;;;;;;11.73;5.15;;;6.60;88.40;;;;;;5063421;28;20039;-80
2021/12/12 02:55:01;;;;;;;11.30;5.05;;;6.60;87.80;;;;;;5064967;28;20021;-79
2021/12/12 02:57:27;;;;;;;13.20;5.30;;;6.60;87.70;;;;;;5066406;28;20024;-79
2021/12/12 02:59:53;;;;;;;19.80;6.82;;;6.60;87.70;;;;;;5058162;28;20013;-78
2021/12/12 03:02:26;;;;;;;14.10;6.38;;;6.60;87.80;;;;;;5065163;28;20037;-78
2021/12/12 03:04:55;;;;;;;12.32;5.47;;;6.60;87.90;;;;;;5067634;28;20078;-79
2021/12/12 03:07:20;;;;;;;16.48;6.28;;;6.60;88.00;;;;;;5064713;28;20040;-78
2021/12/12 03:09:51;;;;;;;13.80;4.80;;;6.60;88.70;;;;;;5062729;28;20501;-78
2021/12/12 03:12:22;;;;;;;12.10;4.63;;;6.60;88.10;;;;;;5063232;28;20028;-77
2021/12/12 03:14:50;;;;;;;12.73;5.43;;;6.60;88.10;;;;;;5057107;28;20048;-79
2021/12/12 03:17:20;;;;;;;13.90;4.90;;;6.60;88.10;;;;;;5058657;28;20025;-78
2021/12/12 03:19:48;;;;;;;12.02;4.97;;;6.60;88.20;;;;;;5056422;28;20037;-80
2021/12/12 03:22:14;;;;;;;18.30;7.03;;;6.60;88.20;;;;;;5061442;28;20124;-79
2021/12/12 03:24:40;;;;;;;7.93;4.22;;;6.60;88.30;;;;;;5057005;28;20036;-80
2021/12/12 03:27:10;;;;;;;11.40;5.85;;;6.60;88.40;;;;;;5065618;28;20024;-79
2021/12/12 03:29:37;;;;;;;11.98;5.55;;;6.60;88.40;;;;;;5062996;28;20040;-79
2021/12/12 03:32:10;;;;;;;9.52;4.70;;;6.60;88.40;;;;;;5066894;28;20060;-79
2021/12/12 03:34:39;;;;;;;10.45;5.20;;;6.70;88.70;;;;;;5064963;28;20031;-78
2021/12/12 03:37:09;;;;;;;9.35;4.60;;;6.70;88.60;;;;;;5056411;28;20104;-79
2021/12/12 03:39:39;;;;;;;12.43;5.63;;;6.70;88.70;;;;;;5059446;28;20028;-79
2021/12/12 03:42:11;;;;;;;10.15;4.97;;;6.70;88.70;;;;;;5056578;28;20021;-78
2021/12/12 03:44:38;;;;;;;10.10;4.70;;;6.70;88.80;;;;;;5068492;28;20025;-79
2021/12/12 03:47:16;;;;;;;10.93;5.38;;;6.70;88.90;;;;;;5068639;28;20020;-79
2021/12/12 03:49:42;;;;;;;8.98;4.72;;;6.70;88.80;;;;;;5068357;28;20446;-78
2021/12/12 03:52:10;;;;;;;11.77;6.13;;;6.70;88.90;;;;;;5068991;28;20044;-79
2021/12/12 03:54:36;;;;;;;18.95;8.85;;;6.70;89.00;;;;;;5068167;28;20024;-78
2021/12/12 03:57:03;;;;;;;7.95;5.30;;;6.70;89.20;;;;;;5068316;28;20037;-80
2021/12/12 03:59:29;;;;;;;11.32;5.72;;;6.70;89.30;;;;;;5066800;28;20025;-79
2021/12/12 04:01:55;;;;;;;11.63;5.32;;;6.70;89.40;;;;;;5067191;28;20025;-79
2021/12/12 04:04:30;;;;;;;13.55;7.40;;;6.70;89.50;;;;;;5068779;28;20476;-78
2021/12/12 04:06:57;;;;;;;10.25;5.28;;;6.70;89.50;;;;;;5064484;28;20055;-79
2021/12/12 04:09:23;;;;;;;11.57;6.00;;;6.70;89.60;;;;;;5069950;28;20020;-79
2021/12/12 04:11:54;;;;;;;6.90;4.38;;;6.70;89.60;;;;;;5064083;28;20029;-79
2021/12/12 04:14:21;;;;;;;7.75;5.35;;;6.70;89.60;;;;;;5070703;28;20029;-78
2021/12/12 04:16:52;;;;;;;7.95;4.88;;;6.80;89.70;;;;;;5068115;28;20546;-79
2021/12/12 04:19:18;;;;;;;7.85;4.82;;;6.70;89.60;;;;;;5070612;28;20467;-79
2021/12/12 04:21:44;;;;;;;8.88;5.82;;;6.70;89.70;;;;;;5069080;28;20031;-80
2021/12/12 04:24:10;;;;;;;9.20;6.93;;;6.70;89.70;;;;;;5066180;28;20124;-80
2021/12/12 04:26:39;;;;;;;9.80;5.40;;;6.70;89.90;;;;;;5066739;28;20032;-80
2021/12/12 04:29:22;;;;;;;10.15;6.10;;;6.70;90.00;;;;;;5070274;28;20027;-80
2021/12/12 04:31:54;;;;;;;6.63;4.80;;;6.70;90.00;;;;;;5066149;28;20048;-80
2021/12/12 04:34:23;;;;;;;8.23;4.85;;;6.70;90.10;;;;;;5063260;28;20028;-79
2021/12/12 04:36:50;;;;;;;6.60;4.35;;;6.80;90.00;;;;;;5069716;28;20123;-79
2021/12/12 04:39:19;;;;;;;8.57;5.13;;;6.80;90.00;;;;;;5063825;28;20032;-79
2021/12/12 04:41:47;;;;;;;6.57;4.47;;;6.80;90.00;;;;;;5071002;28;20108;-79
2021/12/12 04:44:18;;;;;;;5.00;3.50;;;6.80;90.00;;;;;;5068692;28;20024;-78
2021/12/12 04:50:00;;;;;;;5.15;3.60;;;6.90;89.90;;;;;;5062002;28;20048;-78
2021/12/12 04:52:43;;;;;;;7.93;5.30;;;6.90;90.00;;;;;;5063818;28;20043;-78
2021/12/12 04:55:23;;;;;;;8.75;4.88;;;6.90;90.00;;;;;;5063254;28;20066;-79
2021/12/12 04:58:03;;;;;;;9.15;6.82;;;6.90;90.00;;;;;;5070593;28;20033;-77
2021/12/12 05:00:40;;;;;;;4.38;3.60;;;6.90;90.00;;;;;;5060073;28;20017;-78
2021/12/12 05:03:15;;;;;;;7.18;5.20;;;6.90;90.10;;;;;;5064109;28;20052;-77
2021/12/12 05:06:04;;;;;;;10.27;6.82;;;6.80;90.10;;;;;;5065629;28;20103;-78
2021/12/12 05:08:42;;;;;;;9.80;7.28;;;6.90;90.10;;;;;;5066826;28;20447;-77
2021/12/12 05:11:18;;;;;;;8.15;4.63;;;6.90;90.20;;;;;;5070967;28;20025;-77
2021/12/12 05:13:51;;;;;;;8.68;5.70;;;6.90;90.20;;;;;;5059698;28;20028;-77
2021/12/12 05:16:31;;;;;;;;;;;6.90;90.20;;;;;;5056276;28;20540;-76
2021/12/12 05:19:05;;;;;;;7.28;4.60;;;6.90;90.10;;;;;;5055592;28;19912;-78
2021/12/12 05:21:36;;;;;;;6.88;4.47;;;6.90;90.20;;;;;;5067493;28;20023;-78
2021/12/12 05:24:05;;;;;;;7.75;5.10;;;6.90;90.30;;;;;;5063588;28;20064;-77
2021/12/12 05:26:40;;;;;;;8.18;5.97;;;6.90;90.30;;;;;;5068999;28;20037;-78
2021/12/12 05:29:13;;;;;;;12.82;7.43;;;6.90;90.30;;;;;;5068411;28;20089;-78
2021/12/12 05:31:45;;;;;;;6.85;4.65;;;6.90;90.40;;;;;;5067862;28;20032;-78
2021/12/12 05:34:11;;;;;;;7.47;4.90;;;7.00;90.50;;;;;;5064569;28;20028;-77
2021/12/12 05:36:37;;;;;;;6.50;4.63;;;6.90;90.40;;;;;;5067583;28;20282;-78
2021/12/12 05:39:04;;;;;;;7.05;4.32;;;7.00;90.40;;;;;;5062933;28;20032;-76
2021/12/12 05:41:31;;;;;;;8.95;6.68;;;7.10;90.50;;;;;;5064008;28;20028;-78
2021/12/12 05:43:57;;;;;;;11.73;6.78;;;7.10;90.40;;;;;;5069907;28;20071;-77
2021/12/12 05:46:25;;;;;;;9.75;7.35;;;7.10;90.50;;;;;;5064564;28;20036;-78
2021/12/12 05:48:53;;;;;;;9.35;5.82;;;7.00;90.40;;;;;;5068036;28;20025;-79
2021/12/12 05:51:20;;;;;;;10.60;7.35;;;7.00;90.50;;;;;;5059847;28;20036;-76
2021/12/12 05:53:50;;;;;;;9.70;7.30;;;7.00;90.60;;;;;;5068601;28;20024;-77
2021/12/12 05:56:17;;;;;;;10.00;4.75;;;7.00;90.60;;;;;;5065378;28;20087;-77
2021/12/12 05:58:44;;;;;;;8.60;6.57;;;7.10;90.70;;;;;;5066621;28;20024;-78
2021/12/12 06:01:10;;;;;;;9.85;6.90;;;7.10;90.70;;;;;;5067276;28;20025;-77
2021/12/12 06:03:40;;;;;;;9.07;7.47;;;7.00;90.80;;;;;;5064828;28;20028;-78
2021/12/12 06:06:09;;;;;;;6.38;4.80;;;7.10;90.90;;;;;;5060033;28;20138;-77
2021/12/12 06:08:36;;;;;;;8.77;5.50;;;7.10;90.90;;;;;;5067524;28;20039;-77
2021/12/12 06:11:02;;;;;;;8.60;6.93;;;7.10;90.80;;;;;;5064950;28;20032;-78
2021/12/12 06:13:29;;;;;;;8.13;6.30;;;7.20;90.80;;;;;;5068712;28;20692;-77
2021/12/12 06:15:56;;;;;;;5.63;4.78;;;7.20;90.80;;;;;;5054957;28;20079;-76
2021/12/12 06:18:25;;;;;;;8.15;5.28;;;7.30;90.90;;;;;;5057074;28;20028;-78
2021/12/12 06:20:52;;;;;;;10.30;7.85;;;7.30;90.80;;;;;;5067230;28;20024;-78
2021/12/12 06:23:18;;;;;;;7.47;5.85;;;7.30;90.80;;;;;;5069465;28;20383;-78
2021/12/12 06:25:45;;;;;;;8.10;6.30;;;7.30;90.80;;;;;;5066635;28;20028;-79
2021/12/12 06:28:17;;;;;;;10.77;7.97;;;7.30;90.80;;;;;;5066841;28;20032;-77
2021/12/12 06:30:43;;;;;;;13.68;10.98;;;7.30;90.80;;;;;;5064800;28;20036;-78
2021/12/12 06:33:10;;;;;;;5.93;4.68;;;7.30;90.80;;;;;;5065148;28;20021;-77
2021/12/12 06:35:37;;;;;;;6.35;4.80;;;7.40;90.80;;;;;;5064616;28;20031;-78
2021/12/12 06:38:05;;;;;;;10.70;6.90;;;7.40;90.80;;;;;;5064714;28;20024;-77
2021/12/12 06:40:31;;;;;;;8.15;6.25;;;7.40;90.80;;;;;;5064514;28;20112;-78
2021/12/12 06:43:00;;;;;;;8.63;6.50;;;7.40;90.80;;;;;;5066133;28;20443;-77
2021/12/12 06:45:26;;;;;;;19.13;9.10;;;7.50;90.80;;;;;;5065352;28;20043;-78
2021/12/12 06:47:53;;;;;;;19.02;10.93;;;7.50;90.80;;;;;;5057653;28;20016;-79
2021/12/12 06:50:19;;;;;;;8.43;7.03;;;7.40;90.80;;;;;;5057583;28;20028;-79
2021/12/12 06:52:46;;;;;;;7.78;6.13;;;7.40;90.80;;;;;;5066073;28;20036;-79
2021/12/12 06:55:12;;;;;;;7.45;5.40;;;7.40;90.80;;;;;;5064259;28;20491;-77
2021/12/12 06:57:38;;;;;;;6.90;5.30;;;7.50;90.90;;;;;;5062787;28;20029;-77
2021/12/12 07:00:09;;;;;;;11.45;7.90;;;7.50;90.80;;;;;;5065539;28;20586;-77
2021/12/12 07:02:35;;;;;;;5.43;4.57;;;7.50;90.80;;;;;;5067639;28;20571;-78
2021/12/12 07:05:02;;;;;;;7.18;6.00;;;7.50;90.80;;;;;;5062733;28;20110;-77
2021/12/12 07:07:28;;;;;;;7.35;5.28;;;7.60;90.80;;;;;;5066568;28;20020;-78
2021/12/12 07:09:53;;;;;;;7.70;5.38;;;7.60;90.80;;;;;;5063330;28;20321;-78
2021/12/12 07:12:22;;;;;;;6.00;4.90;;;7.60;90.80;;;;;;5066013;28;20085;-78
2021/12/12 07:14:50;;;;;;;7.43;5.53;;;7.70;90.70;;;;;;5063765;28;20017;-77
2021/12/12 07:17:16;;;;;;;8.88;6.38;;;7.70;90.70;;;;;;5066385;28;20103;-77
2021/12/12 07:19:42;;;;;;;9.38;5.45;;;7.80;90.70;;;;;;5062850;28;20021;-78
2021/12/12 07:22:09;;;;;;;16.95;6.85;;;7.70;90.70;;;;;;5063548;28;20471;-78
2021/12/12 07:24:35;;;;;;;22.40;7.20;;;7.70;90.70;;;;;;5063433;28;20032;-78
2021/12/12 07:27:02;;;;;;;17.02;7.20;;;7.70;90.70;;;;;;5063449;28;20060;-79
2021/12/12 07:29:29;;;;;;;6.65;5.35;;;7.70;91.00;;;;;;5061802;28;20060;-78
2021/12/12 07:31:57;;;;;;;14.13;6.57;;;7.70;90.70;;;;;;5060921;28;20032;-78
2021/12/12 07:34:24;;;;;;;9.32;5.85;;;7.80;90.80;;;;;;5062267;28;20021;-77
2021/12/12 07:36:56;;;;;;;7.85;6.03;;;7.80;90.80;;;;;;5066390;28;20708;-79
2021/12/12 07:39:22;;;;;;;20.20;7.55;;;7.80;90.80;;;;;;5058273;28;20372;-78
2021/12/12 07:41:51;;;;;;;12.25;7.78;;;7.80;90.80;;;;;;5060967;28;20046;-78
2021/12/12 07:44:19;;;;;;;12.85;7.00;;;7.80;90.80;;;;;;5067577;28;20036;-80
2021/12/12 07:46:46;;;;;;;7.45;5.35;;;7.80;90.80;;;;;;5064521;28;20035;-78
2021/12/12 07:49:12;;;;;;;8.55;6.35;;;7.80;90.90;;;;;;5065702;28;20048;-77
2021/12/12 07:51:42;;;;;;;6.88;5.00;;;7.80;90.80;;;;;;5061608;28;20029;-78
2021/12/12 07:54:08;;;;;;;7.93;5.65;;;7.90;90.90;;;;;;5059624;28;20016;-77
2021/12/12 07:56:37;;;;;;;17.73;8.02;;;7.90;90.80;;;;;;5061111;28;20028;-77
2021/12/12 07:59:06;;;;;;;6.28;4.85;;;7.90;90.80;;;;;;5064141;28;20073;-77
2021/12/12 08:01:33;;;;;;;10.93;6.65;;;7.90;90.90;;;;;;5058516;28;20395;-77
2021/12/12 08:03:59;;;;;;;9.90;4.85;;;7.90;90.90;;;;;;5067150;28;20027;-76
2021/12/12 08:06:25;;;;;;;7.63;5.72;;;8.00;90.90;;;;;;5065150;28;20036;-77
2021/12/12 08:08:52;;;;;;;6.25;4.43;;;8.00;90.80;;;;;;5066378;28;20024;-77
2021/12/12 08:11:22;;;;;;;8.75;5.40;;;8.00;90.80;;;;;;5063353;28;20037;-77
2021/12/12 08:13:48;;;;;;;7.72;5.72;;;8.10;90.80;;;;;;5065341;28;20466;-77
2021/12/12 08:16:15;;;;;;;8.82;6.60;;;8.10;90.80;;;;;;5060721;28;20013;-77
2021/12/12 08:18:41;;;;;;;10.57;6.32;;;8.10;90.80;;;;;;5066942;28;20032;-77
2021/12/12 08:21:07;;;;;;;8.95;5.15;;;8.20;90.80;;;;;;5066003;28;20021;-77
2021/12/12 08:23:34;;;;;;;79.63;11.23;;;8.20;90.80;;;;;;5067143;28;20039;-77
2021/12/12 08:26:02;;;;;;;13.02;7.00;;;8.20;90.80;;;;;;5062203;28;20087;-77
2021/12/12 08:28:29;;;;;;;10.88;5.97;;;8.20;90.70;;;;;;5069704;28;20043;-77
2021/12/12 08:30:55;;;;;;;39.40;7.72;;;8.20;90.70;;;;;;5064859;28;20666;-76
2021/12/12 08:33:22;;;;;;;8.82;5.35;;;8.20;90.70;;;;;;5069390;28;20656;-76
2021/12/12 08:35:47;;;;;;;21.98;7.40;;;8.30;90.80;;;;;;5065106;28;20475;-79
2021/12/12 08:38:14;;;;;;;144.60;15.30;;;8.30;90.70;;;;;;5064384;28;20032;-78
2021/12/12 08:40:47;;;;;;;21.83;7.13;;;8.30;90.70;;;;;;5066987;28;20034;-77
2021/12/12 08:43:15;;;;;;;14.57;6.30;;;8.30;90.80;;;;;;5063992;28;20417;-77
2021/12/12 08:45:44;;;;;;;15.30;7.07;;;8.30;90.80;;;;;;5066660;28;20700;-77
2021/12/12 08:48:11;;;;;;;15.52;6.75;;;8.20;90.80;;;;;;5066696;28;20138;-78
2021/12/12 08:50:40;;;;;;;14.75;5.30;;;8.30;90.80;;;;;;5064516;28;20051;-77
2021/12/12 08:53:07;;;;;;;51.67;9.77;;;8.30;90.80;;;;;;5067969;28;20096;-77
2021/12/12 08:55:37;;;;;;;12.32;7.03;;;8.30;90.80;;;;;;5069277;28;20103;-79
2021/12/12 08:58:17;;;;;;;112.68;11.15;;;8.40;90.80;;;;;;5067220;28;20487;-80
2021/12/12 09:01:05;;;;;;;125.57;13.68;;;8.40;90.80;;;;;;5063313;28;20081;-78
2021/12/12 09:03:42;;;;;;;31.70;9.98;;;8.40;90.90;;;;;;5065235;28;20021;-77
2021/12/12 09:06:12;;;;;;;32.80;7.40;;;8.30;90.90;;;;;;5063493;28;20051;-77
2021/12/12 09:08:49;;;;;;;25.67;7.22;;;8.40;90.90;;;;;;5066648;28;20507;-77
2021/12/12 09:11:26;;;;;;;21.52;6.25;;;8.40;90.90;;;;;;5066379;28;20056;-77
2021/12/12 09:14:00;;;;;;;10.77;6.40;;;8.50;90.90;;;;;;5066858;28;20025;-78
2021/12/12 09:16:32;;;;;;;42.75;12.52;;;8.40;90.90;;;;;;5067937;28;20064;-77
2021/12/12 09:19:06;;;;;;;28.20;8.13;;;8.50;90.90;;;;;;5064750;28;20020;-78
2021/12/12 09:21:50;;;;;;;65.05;10.82;;;8.50;90.90;;;;;;5067109;28;20031;-77
2021/12/12 09:24:43;;;;;;;15.18;7.95;;;8.50;91.00;;;;;;5067658;28;20169;-78
2021/12/12 09:27:11;;;;;;;15.93;7.50;;;8.50;91.00;;;;;;5063396;28;20074;-78
2021/12/12 09:29:46;;;;;;;15.52;7.75;;;8.50;91.00;;;;;;5064937;28;20569;-79
2021/12/12 09:32:29;;;;;;;15.40;6.93;;;8.60;91.00;;;;;;5064411;28;20036;-77
2021/12/12 09:35:18;;;;;;;18.05;6.95;;;8.60;91.00;;;;;;5067517;28;20044;-78
2021/12/12 09:37:55;;;;;;;17.63;9.13;;;8.60;91.00;;;;;;5067734;28;20445;-78
2021/12/12 09:40:45;;;;;;;76.30;13.80;;;8.60;91.10;;;;;;5063663;28;20024;-77
2021/12/12 09:43:17;;;;;;;49.30;9.65;;;8.60;91.20;;;;;;5067406;28;20732;-78
2021/12/12 09:46:27;;;;;;;13.15;7.63;;;8.60;91.20;;;;;;5065519;28;20076;-78
2021/12/12 09:52:13;;;;;;;34.00;9.02;;;8.70;91.30;;;;;;5065231;28;20588;-78
2021/12/12 09:55:15;;;;;;;10.02;6.80;;;8.70;91.20;;;;;;5065342;28;20020;-78
2021/12/12 09:57:52;;;;;;;29.00;8.45;;;8.70;91.20;;;;;;5055901;28;20048;-78
2021/12/12 10:00:29;;;;;;;26.33;8.35;;;8.70;91.20;;;;;;5066696;28;20490;-79
2021/12/12 10:03:19;;;;;;;8.23;5.82;;;8.70;91.20;;;;;;5065538;28;20487;-76
2021/12/12 10:06:16;;;;;;;27.52;9.00;;;8.80;91.20;;;;;;5061985;28;20061;-77
2021/12/12 10:09:24;;;;;;;10.93;6.72;;;8.80;91.20;;;;;;5065530;28;20056;-77
2021/12/12 10:12:11;;;;;;;11.88;6.35;;;8.90;91.20;;;;;;5040130;28;20120;-77
2021/12/12 10:14:57;;;;;;;18.42;7.45;;;8.90;91.20;;;;;;5067066;28;20032;-78
2021/12/12 10:17:34;;;;;;;19.50;7.65;;;8.90;91.20;;;;;;5065376;28;20035;-78
2021/12/12 10:20:20;;;;;;;16.90;8.55;;;9.00;91.10;;;;;;5066874;28;20029;-78
2021/12/12 10:22:59;;;;;;;19.98;8.43;;;9.00;91.20;;;;;;5065904;28;20032;-78
2021/12/12 10:25:31;;;;;;;16.23;9.70;;;9.00;91.20;;;;;;5064471;28;20043;-77
2021/12/12 10:28:06;;;;;;;12.90;8.25;;;9.10;91.20;;;;;;5065726;28;20089;-77
2021/12/12 10:30:40;;;;;;;22.15;9.73;;;9.00;91.20;;;;;;5066485;28;20032;-76
2021/12/12 10:33:43;;;;;;;14.65;9.65;;;9.10;91.20;;;;;;5069112;28;20024;-76
2021/12/12 10:36:20;;;;;;;6.82;5.15;;;9.10;91.30;;;;;;5065364;28;20533;-79
2021/12/12 10:39:04;;;;;;;11.68;6.63;;;9.10;91.20;;;;;;5064306;28;20549;-78
2021/12/12 10:41:47;;;;;;;8.68;5.80;;;9.20;91.30;;;;;;5063490;28;20036;-78
2021/12/12 10:44:29;;;;;;;9.57;6.43;;;9.20;91.20;;;;;;5060573;28;20020;-77
2021/12/12 10:47:04;;;;;;;9.82;6.90;;;9.20;91.20;;;;;;5062490;28;20523;-77
2021/12/12 10:50:11;;;;;;;9.27;6.65;;;9.30;91.20;;;;;;5061153;28;20044;-79
2021/12/12 10:52:44;;;;;;;10.07;6.60;;;9.30;91.30;;;;;;5065047;28;20032;-78
2021/12/12 10:55:20;;;;;;;8.30;5.47;;;9.30;91.30;;;;;;5065854;28;20395;-78
2021/12/12 10:58:05;;;;;;;9.13;6.03;;;9.30;91.20;;;;;;5062742;28;20035;-77
2021/12/12 11:00:35;;;;;;;11.73;7.93;;;9.30;91.20;;;;;;5061552;28;20581;-77
2021/12/12 11:03:09;;;;;;;7.53;5.75;;;9.40;91.20;;;;;;5065514;28;20541;-76
2021/12/12 11:05:44;;;;;;;9.18;5.97;;;9.30;91.20;;;;;;5062138;28;20135;-78
2021/12/12 11:08:36;;;;;;;5.85;4.30;;;9.40;91.20;;;;;;5061651;28;20023;-78
2021/12/12 11:11:10;;;;;;;8.55;6.25;;;9.40;91.20;;;;;;5063848;28;20598;-76
2021/12/12 11:13:42;;;;;;;8.30;5.95;;;9.40;91.20;;;;;;5063176;28;20538;-77
2021/12/12 11:16:31;;;;;;;8.50;6.40;;;9.40;91.20;;;;;;5058457;28;20818;-76
2021/12/12 11:19:07;;;;;;;8.52;6.10;;;9.40;91.30;;;;;;5066965;28;20066;-77
2021/12/12 11:21:39;;;;;;;10.23;7.57;;;9.40;91.30;;;;;;5065323;28;20047;-77
2021/12/12 11:24:27;;;;;;;6.73;5.03;;;9.50;91.30;;;;;;5065398;28;20479;-76
2021/12/12 11:26:59;;;;;;;7.97;5.38;;;9.50;91.30;;;;;;5065406;28;20047;-77
2021/12/12 11:29:39;;;;;;;6.82;5.07;;;9.60;91.30;;;;;;5062873;28;20020;-76
2021/12/12 11:32:10;;;;;;;7.22;5.28;;;9.60;91.30;;;;;;5058599;28;20547;-77
2021/12/12 11:34:40;;;;;;;6.13;4.72;;;9.60;91.20;;;;;;5059940;28;20029;-77
2021/12/12 11:37:24;;;;;;;7.90;5.60;;;9.60;91.20;;;;;;5060037;28;20028;-77
2021/12/12 11:40:14;;;;;;;8.88;6.03;;;9.70;91.20;;;;;;5062409;28;20538;-78
2021/12/12 11:42:51;;;;;;;6.50;4.95;;;9.70;91.20;;;;;;5062637;28;20339;-77
2021/12/12 11:45:28;;;;;;;9.55;6.18;;;9.70;91.20;;;;;;5062784;28;20044;-76
2021/12/12 11:48:27;;;;;;;10.57;7.05;;;9.70;91.20;;;;;;5063765;28;20048;-77
2021/12/12 11:51:06;;;;;;;8.02;5.85;;;9.70;91.20;;;;;;5067447;28;20032;-78
2021/12/12 11:54:07;;;;;;;7.95;5.20;;;9.70;91.20;;;;;;5060103;28;20057;-78
2021/12/12 11:56:45;;;;;;;8.18;5.40;;;9.80;91.20;;;;;;5060405;28;20025;-78
2021/12/12 11:59:25;;;;;;;10.07;7.10;;;9.80;91.50;;;;;;5064968;28;20035;-77
2021/12/12 12:02:28;;;;;;;9.45;5.45;;;9.70;91.30;;;;;;5067572;28;20039;-77
2021/12/12 12:05:14;;;;;;;;;;;9.80;91.30;;;;;;5068951;28;20028;-77
2021/12/12 12:07:59;;;;;;;6.70;5.50;;;9.80;91.30;;;;;;5055570;28;19912;-77
2021/12/12 12:10:52;;;;;;;5.80;4.25;;;9.80;91.30;;;;;;5065525;28;20455;-77
2021/12/12 12:13:55;;;;;;;7.75;5.53;;;9.80;91.30;;;;;;5060655;28;20029;-79
2021/12/12 12:16:44;;;;;;;6.75;4.80;;;9.90;91.30;;;;;;5072105;28;20513;-77
2021/12/12 12:19:31;;;;;;;9.57;7.43;;;9.90;91.30;;;;;;5064457;28;20024;-77
2021/12/12 12:22:16;;;;;;;10.55;8.50;;;9.90;91.30;;;;;;5065854;28;20028;-78
2021/12/12 12:25:00;;;;;;;17.08;13.60;;;9.90;91.30;;;;;;5083742;28;20130;-78
2021/12/12 12:27:40;;;;;;;11.63;9.98;;;9.90;91.30;;;;;;5068032;28;20062;-78
2021/12/12 12:30:27;;;;;;;80.20;58.22;;;10.00;91.30;;;;;;5064247;28;20150;-79
2021/12/12 12:33:12;;;;;;;47.63;34.22;;;10.00;91.30;;;;;;5070219;28;20031;-78
2021/12/12 12:36:19;;;;;;;45.17;32.08;;;10.00;91.30;;;;;;5067305;28;20066;-77
2021/12/12 12:39:19;;;;;;;24.85;18.83;;;10.00;91.30;;;;;;5065788;28;20147;-77
2021/12/12 12:42:16;;;;;;;41.28;28.02;;;10.00;91.40;;;;;;5069182;28;20059;-79
2021/12/12 12:45:31;;;;;;;37.42;29.27;;;10.00;91.30;;;;;;5064192;28;20045;-79
2021/12/12 12:48:12;;;;;;;38.42;31.13;;;10.10;91.40;;;;;;5068198;28;20053;-78
2021/12/12 12:50:57;;;;;;;39.20;29.35;;;10.10;91.30;;;;;;5062856;28;21045;-77
2021/12/12 12:53:42;;;;;;;20.00;15.82;;;10.10;91.30;;;;;;5064911;28;20396;-79
2021/12/12 12:56:32;;;;;;;101.13;64.35;;;10.10;91.30;;;;;;5067072;28;20471;-78
2021/12/12 12:58:58;;;;;;;53.88;38.83;;;10.10;91.30;;;;;;5063243;28;20036;-77
2021/12/12 13:01:36;;;;;;;34.22;30.55;;;10.10;91.30;;;;;;5057095;28;20085;-78
2021/12/12 13:04:01;;;;;;;15.98;13.90;;;10.10;91.40;;;;;;5063285;28;20068;-76
2021/12/12 13:07:01;;;;;;;10.45;9.18;;;10.20;91.40;;;;;;5066221;28;20064;-77
2021/12/12 13:10:04;;;;;;;10.57;9.43;;;10.20;91.60;;;;;;5064307;28;20044;-76
2021/12/12 13:12:52;;;;;;;5.30;4.80;;;10.20;91.30;;;;;;5062559;28;20870;-75
2021/12/12 13:15:31;;;;;;;5.07;4.40;;;10.20;91.30;;;;;;5065611;28;20036;-77
2021/12/12 13:18:32;;;;;;;6.68;5.53;;;10.30;91.30;;;;;;5062948;28;20039;-76
2021/12/12 13:21:18;;;;;;;6.68;5.68;;;10.30;91.30;;;;;;5063905;28;20514;-76
2021/12/12 13:24:15;;;;;;;7.07;5.85;;;10.30;91.30;;;;;;5063752;28;20505;-78
2021/12/12 13:27:11;;;;;;;4.93;4.35;;;10.30;91.30;;;;;;5067655;28;20041;-76
2021/12/12 13:30:00;;;;;;;7.85;6.70;;;10.30;91.30;;;;;;5065430;28;20111;-77
2021/12/12 13:32:36;;;;;;;7.20;5.88;;;10.30;91.30;;;;;;5064137;28;20166;-76
2021/12/12 13:35:17;;;;;;;9.55;5.57;;;10.40;91.30;;;;;;5063901;28;20021;-75
2021/12/12 13:37:58;;;;;;;8.35;7.25;;;10.40;91.30;;;;;;5058780;28;20040;-76
2021/12/12 13:40:35;;;;;;;6.90;5.60;;;10.40;91.20;;;;;;5061385;28;20028;-77
2021/12/12 13:43:21;;;;;;;9.32;6.60;;;10.50;91.20;;;;;;5065363;28;20125;-78
2021/12/12 13:46:15;;;;;;;6.53;5.57;;;10.40;91.20;;;;;;5062336;28;20067;-76
2021/12/12 13:49:13;;;;;;;9.23;5.55;;;10.40;91.30;;;;;;5065117;28;20032;-76
2021/12/12 13:51:52;;;;;;;7.53;5.90;;;10.40;91.30;;;;;;5065786;28;20020;-78